CheckWX is a tool to help pilots better visualize weather data.  It is not intended as a substitute for an official pre-flight weather briefing.

07:30:35 UTC

EGVN TAF
RAF Brize Norton Airport
Brize Norton, United Kingdom
TAF EGVN 210417Z 2106/2206 11010KT CAVOK

Sep-21@
06:00 UTC

Sep-21 @ 06:00 UTC

Sep-22@
06:00 UTC

Sep-22 @ 06:00 UTC

TAF EGVN 210417Z 2106/2206 11010KT CAVOK
Wind
  • 110° at 10 KTS
Conditions
No significant weather
Cloud Levels
  • No significant clouds